sensor_id;sensor_type;location;lat;lon;timestamp;temperature;humidity
69031;DHT22;56083;48.774;8.942;2023-05-29T00:02:09;10.40;99.90
69031;DHT22;56083;48.774;8.942;2023-05-29T00:04:35;10.40;99.90
69031;DHT22;56083;48.774;8.942;2023-05-29T00:07:01;10.40;99.90
69031;DHT22;56083;48.774;8.942;2023-05-29T00:09:26;10.30;99.90
69031;DHT22;56083;48.774;8.942;2023-05-29T00:11:53;10.30;99.90
69031;DHT22;56083;48.774;8.942;2023-05-29T00:14:19;10.40;99.90
69031;DHT22;56083;48.774;8.942;2023-05-29T00:16:46;10.50;99.90
69031;DHT22;56083;48.774;8.942;2023-05-29T00:19:15;10.40;99.90
69031;DHT22;56083;48.774;8.942;2023-05-29T00:21:47;10.50;99.90
69031;DHT22;56083;48.774;8.942;2023-05-29T00:24:17;10.50;99.90
69031;DHT22;56083;48.774;8.942;2023-05-29T00:26:43;10.50;99.90
69031;DHT22;56083;48.774;8.942;2023-05-29T00:29:09;10.50;99.90
69031;DHT22;56083;48.774;8.942;2023-05-29T00:31:34;10.40;99.90
69031;DHT22;56083;48.774;8.942;2023-05-29T00:34:01;10.40;99.90
69031;DHT22;56083;48.774;8.942;2023-05-29T00:36:27;10.30;99.90
69031;DHT22;56083;48.774;8.942;2023-05-29T00:38:55;10.30;99.90
69031;DHT22;56083;48.774;8.942;2023-05-29T00:41:20;10.20;99.90
69031;DHT22;56083;48.774;8.942;2023-05-29T00:43:46;10.20;99.90
69031;DHT22;56083;48.774;8.942;2023-05-29T00:46:13;10.20;99.90
69031;DHT22;56083;48.774;8.942;2023-05-29T00:48:40;10.20;99.90
69031;DHT22;56083;48.774;8.942;2023-05-29T00:51:07;10.10;99.90
69031;DHT22;56083;48.774;8.942;2023-05-29T00:53:34;10.10;99.90
69031;DHT22;56083;48.774;8.942;2023-05-29T00:56:00;10.10;99.90
69031;DHT22;56083;48.774;8.942;2023-05-29T00:58:26;10.10;99.90
69031;DHT22;56083;48.774;8.942;2023-05-29T01:00:52;10.10;99.90
69031;DHT22;56083;48.774;8.942;2023-05-29T01:03:20;10.10;99.90
69031;DHT22;56083;48.774;8.942;2023-05-29T01:05:48;10.10;99.90
69031;DHT22;56083;48.774;8.942;2023-05-29T01:08:13;10.10;99.90
69031;DHT22;56083;48.774;8.942;2023-05-29T01:10:40;10.10;99.90
69031;DHT22;56083;48.774;8.942;2023-05-29T01:13:23;10.00;99.90
69031;DHT22;56083;48.774;8.942;2023-05-29T01:19:20;9.90;99.90
69031;DHT22;56083;48.774;8.942;2023-05-29T01:24:38;10.10;99.90
69031;DHT22;56083;48.774;8.942;2023-05-29T01:27:10;9.70;99.90
69031;DHT22;56083;48.774;8.942;2023-05-29T01:29:38;9.60;99.90
69031;DHT22;56083;48.774;8.942;2023-05-29T01:32:05;9.50;99.90
69031;DHT22;56083;48.774;8.942;2023-05-29T01:34:31;9.40;99.90
69031;DHT22;56083;48.774;8.942;2023-05-29T01:36:57;9.40;99.90
69031;DHT22;56083;48.774;8.942;2023-05-29T01:39:23;9.30;99.90
69031;DHT22;56083;48.774;8.942;2023-05-29T01:41:50;9.30;99.90
69031;DHT22;56083;48.774;8.942;2023-05-29T01:44:17;9.30;99.90
69031;DHT22;56083;48.774;8.942;2023-05-29T01:46:44;9.30;99.90
69031;DHT22;56083;48.774;8.942;2023-05-29T01:49:11;9.30;99.90
69031;DHT22;56083;48.774;8.942;2023-05-29T01:51:39;9.30;99.90
69031;DHT22;56083;48.774;8.942;2023-05-29T01:54:06;9.20;99.90
69031;DHT22;56083;48.774;8.942;2023-05-29T01:56:32;9.10;99.90
69031;DHT22;56083;48.774;8.942;2023-05-29T01:58:59;9.10;99.90
69031;DHT22;56083;48.774;8.942;2023-05-29T02:01:26;9.00;99.90
69031;DHT22;56083;48.774;8.942;2023-05-29T02:03:52;9.00;99.90
69031;DHT22;56083;48.774;8.942;2023-05-29T02:06:18;9.00;99.90
69031;DHT22;56083;48.774;8.942;2023-05-29T02:08:44;9.00;99.90
69031;DHT22;56083;48.774;8.942;2023-05-29T02:11:09;8.90;99.90
69031;DHT22;56083;48.774;8.942;2023-05-29T02:13:35;8.90;99.90
69031;DHT22;56083;48.774;8.942;2023-05-29T02:16:01;8.90;99.90
69031;DHT22;56083;48.774;8.942;2023-05-29T02:18:26;8.90;99.90
69031;DHT22;56083;48.774;8.942;2023-05-29T02:20:52;8.80;99.90
69031;DHT22;56083;48.774;8.942;2023-05-29T02:23:18;8.80;99.90
69031;DHT22;56083;48.774;8.942;2023-05-29T02:25:45;8.80;99.90
69031;DHT22;56083;48.774;8.942;2023-05-29T02:28:11;8.70;99.90
69031;DHT22;56083;48.774;8.942;2023-05-29T02:30:37;8.60;99.90
69031;DHT22;56083;48.774;8.942;2023-05-29T02:33:02;8.60;99.90
69031;DHT22;56083;48.774;8.942;2023-05-29T02:35:28;8.60;99.90
69031;DHT22;56083;48.774;8.942;2023-05-29T02:37:54;8.50;99.90
69031;DHT22;56083;48.774;8.942;2023-05-29T02:40:20;8.60;99.90
69031;DHT22;56083;48.774;8.942;2023-05-29T02:42:46;8.60;99.90
69031;DHT22;56083;48.774;8.942;2023-05-29T02:45:12;8.50;99.90
69031;DHT22;56083;48.774;8.942;2023-05-29T02:47:38;8.50;99.90
69031;DHT22;56083;48.774;8.942;2023-05-29T02:50:04;8.40;99.90
69031;DHT22;56083;48.774;8.942;2023-05-29T02:52:31;8.40;99.90
69031;DHT22;56083;48.774;8.942;2023-05-29T02:54:57;8.40;99.90
69031;DHT22;56083;48.774;8.942;2023-05-29T02:57:24;8.40;99.90
69031;DHT22;56083;48.774;8.942;2023-05-29T02:59:50;8.30;99.90
69031;DHT22;56083;48.774;8.942;2023-05-29T03:02:17;8.30;99.90
69031;DHT22;56083;48.774;8.942;2023-05-29T03:04:43;8.30;99.90
69031;DHT22;56083;48.774;8.942;2023-05-29T03:07:09;8.30;99.90
69031;DHT22;56083;48.774;8.942;2023-05-29T03:09:35;8.30;99.90
69031;DHT22;56083;48.774;8.942;2023-05-29T03:12:01;8.20;99.90
69031;DHT22;56083;48.774;8.942;2023-05-29T03:14:27;8.20;99.90
69031;DHT22;56083;48.774;8.942;2023-05-29T03:16:53;8.20;99.90
69031;DHT22;56083;48.774;8.942;2023-05-29T03:19:19;8.20;99.90
69031;DHT22;56083;48.774;8.942;2023-05-29T03:21:45;8.20;99.90
69031;DHT22;56083;48.774;8.942;2023-05-29T03:24:11;8.10;99.90
69031;DHT22;56083;48.774;8.942;2023-05-29T03:26:39;8.10;99.90
69031;DHT22;56083;48.774;8.942;2023-05-29T03:29:04;8.10;99.90
69031;DHT22;56083;48.774;8.942;2023-05-29T03:31:31;8.00;99.90
69031;DHT22;56083;48.774;8.942;2023-05-29T03:33:56;8.10;99.90
69031;DHT22;56083;48.774;8.942;2023-05-29T03:36:22;8.00;99.90
69031;DHT22;56083;48.774;8.942;2023-05-29T03:38:48;8.00;99.90
69031;DHT22;56083;48.774;8.942;2023-05-29T03:41:14;8.00;99.90
69031;DHT22;56083;48.774;8.942;2023-05-29T03:43:40;8.00;99.90
69031;DHT22;56083;48.774;8.942;2023-05-29T03:46:05;7.90;99.90
69031;DHT22;56083;48.774;8.942;2023-05-29T03:48:31;7.90;99.90
69031;DHT22;56083;48.774;8.942;2023-05-29T03:50:57;7.90;99.90
69031;DHT22;56083;48.774;8.942;2023-05-29T03:53:22;8.00;99.90
69031;DHT22;56083;48.774;8.942;2023-05-29T03:55:48;7.90;99.90
69031;DHT22;56083;48.774;8.942;2023-05-29T03:58:13;7.90;99.90
69031;DHT22;56083;48.774;8.942;2023-05-29T04:00:39;8.00;99.90
69031;DHT22;56083;48.774;8.942;2023-05-29T04:03:05;7.90;99.90
69031;DHT22;56083;48.774;8.942;2023-05-29T04:05:31;7.90;99.90
69031;DHT22;56083;48.774;8.942;2023-05-29T04:07:57;8.00;99.90
69031;DHT22;56083;48.774;8.942;2023-05-29T04:10:22;8.00;99.90
69031;DHT22;56083;48.774;8.942;2023-05-29T04:12:49;8.10;99.90
69031;DHT22;56083;48.774;8.942;2023-05-29T04:15:15;8.20;99.90
69031;DHT22;56083;48.774;8.942;2023-05-29T04:17:40;8.20;99.90
69031;DHT22;56083;48.774;8.942;2023-05-29T04:20:06;8.30;99.90
69031;DHT22;56083;48.774;8.942;2023-05-29T04:22:37;8.30;99.90
69031;DHT22;56083;48.774;8.942;2023-05-29T04:25:03;8.40;99.90
69031;DHT22;56083;48.774;8.942;2023-05-29T04:27:32;8.40;99.90
69031;DHT22;56083;48.774;8.942;2023-05-29T04:30:05;8.50;99.90
69031;DHT22;56083;48.774;8.942;2023-05-29T04:32:31;8.60;99.90
69031;DHT22;56083;48.774;8.942;2023-05-29T04:34:58;8.60;99.90
69031;DHT22;56083;48.774;8.942;2023-05-29T04:37:30;8.70;99.90
69031;DHT22;56083;48.774;8.942;2023-05-29T04:39:56;8.80;99.90
69031;DHT22;56083;48.774;8.942;2023-05-29T04:42:23;8.90;99.90
69031;DHT22;56083;48.774;8.942;2023-05-29T04:44:51;9.00;99.90
69031;DHT22;56083;48.774;8.942;2023-05-29T04:47:18;9.00;99.90
69031;DHT22;56083;48.774;8.942;2023-05-29T04:49:45;9.10;99.90
69031;DHT22;56083;48.774;8.942;2023-05-29T04:52:17;9.20;99.90
69031;DHT22;56083;48.774;8.942;2023-05-29T04:54:43;9.40;99.90
69031;DHT22;56083;48.774;8.942;2023-05-29T04:57:08;9.50;99.90
69031;DHT22;56083;48.774;8.942;2023-05-29T04:59:34;9.60;99.90
69031;DHT22;56083;48.774;8.942;2023-05-29T05:02:01;9.80;99.90
69031;DHT22;56083;48.774;8.942;2023-05-29T05:04:26;9.90;99.90
69031;DHT22;56083;48.774;8.942;2023-05-29T05:06:52;10.10;99.90
69031;DHT22;56083;48.774;8.942;2023-05-29T05:09:17;10.20;99.90
69031;DHT22;56083;48.774;8.942;2023-05-29T05:11:43;10.40;99.90
69031;DHT22;56083;48.774;8.942;2023-05-29T05:14:09;10.50;99.90
69031;DHT22;56083;48.774;8.942;2023-05-29T05:16:34;10.60;99.90
69031;DHT22;56083;48.774;8.942;2023-05-29T05:19:00;10.80;99.90
69031;DHT22;56083;48.774;8.942;2023-05-29T05:21:26;10.90;99.90
69031;DHT22;56083;48.774;8.942;2023-05-29T05:23:51;11.00;99.90
69031;DHT22;56083;48.774;8.942;2023-05-29T05:26:17;11.20;99.90
69031;DHT22;56083;48.774;8.942;2023-05-29T05:28:42;11.30;99.90
69031;DHT22;56083;48.774;8.942;2023-05-29T05:31:08;11.50;99.90
69031;DHT22;56083;48.774;8.942;2023-05-29T05:33:34;11.60;99.90
69031;DHT22;56083;48.774;8.942;2023-05-29T05:36:00;11.80;99.90
69031;DHT22;56083;48.774;8.942;2023-05-29T05:38:25;12.00;99.90
69031;DHT22;56083;48.774;8.942;2023-05-29T05:40:51;12.20;99.90
69031;DHT22;56083;48.774;8.942;2023-05-29T05:43:17;12.40;99.90
69031;DHT22;56083;48.774;8.942;2023-05-29T05:45:42;12.60;99.90
69031;DHT22;56083;48.774;8.942;2023-05-29T05:48:08;12.70;99.90
69031;DHT22;56083;48.774;8.942;2023-05-29T05:50:34;12.80;99.90
69031;DHT22;56083;48.774;8.942;2023-05-29T05:53:00;13.10;99.90
69031;DHT22;56083;48.774;8.942;2023-05-29T05:55:26;13.30;99.90
69031;DHT22;56083;48.774;8.942;2023-05-29T05:57:53;13.40;99.90
69031;DHT22;56083;48.774;8.942;2023-05-29T06:00:19;13.70;99.90
69031;DHT22;56083;48.774;8.942;2023-05-29T06:02:45;13.80;99.90
69031;DHT22;56083;48.774;8.942;2023-05-29T06:05:11;14.00;99.90
69031;DHT22;56083;48.774;8.942;2023-05-29T06:07:37;14.20;99.90
69031;DHT22;56083;48.774;8.942;2023-05-29T06:10:03;14.40;99.90
69031;DHT22;56083;48.774;8.942;2023-05-29T06:12:29;14.60;99.90
69031;DHT22;56083;48.774;8.942;2023-05-29T06:14:55;14.80;99.90
69031;DHT22;56083;48.774;8.942;2023-05-29T06:17:21;15.10;99.90
69031;DHT22;56083;48.774;8.942;2023-05-29T06:19:47;15.30;99.90
69031;DHT22;56083;48.774;8.942;2023-05-29T06:22:14;15.40;99.90
69031;DHT22;56083;48.774;8.942;2023-05-29T06:24:40;15.70;99.90
69031;DHT22;56083;48.774;8.942;2023-05-29T06:27:06;15.90;99.90
69031;DHT22;56083;48.774;8.942;2023-05-29T06:29:33;16.00;99.90
69031;DHT22;56083;48.774;8.942;2023-05-29T06:31:59;16.30;99.90
69031;DHT22;56083;48.774;8.942;2023-05-29T06:34:24;16.40;99.90
69031;DHT22;56083;48.774;8.942;2023-05-29T06:36:50;16.60;99.90
69031;DHT22;56083;48.774;8.942;2023-05-29T06:39:16;16.70;99.90
69031;DHT22;56083;48.774;8.942;2023-05-29T06:41:43;16.80;99.90
69031;DHT22;56083;48.774;8.942;2023-05-29T06:44:09;17.00;99.90
69031;DHT22;56083;48.774;8.942;2023-05-29T06:46:34;17.20;99.90
69031;DHT22;56083;48.774;8.942;2023-05-29T06:49:00;17.40;99.90
69031;DHT22;56083;48.774;8.942;2023-05-29T06:51:25;17.60;99.90
69031;DHT22;56083;48.774;8.942;2023-05-29T06:53:51;17.60;99.90
69031;DHT22;56083;48.774;8.942;2023-05-29T06:56:17;17.80;99.90
69031;DHT22;56083;48.774;8.942;2023-05-29T06:58:42;17.80;99.90
69031;DHT22;56083;48.774;8.942;2023-05-29T07:01:08;17.90;99.90
69031;DHT22;56083;48.774;8.942;2023-05-29T07:03:33;18.00;99.90
69031;DHT22;56083;48.774;8.942;2023-05-29T07:05:59;18.20;99.90
69031;DHT22;56083;48.774;8.942;2023-05-29T07:08:25;18.20;99.90
69031;DHT22;56083;48.774;8.942;2023-05-29T07:10:50;18.40;99.90
69031;DHT22;56083;48.774;8.942;2023-05-29T07:13:16;18.40;99.90
69031;DHT22;56083;48.774;8.942;2023-05-29T07:15:44;18.50;99.90
69031;DHT22;56083;48.774;8.942;2023-05-29T07:18:09;18.80;99.90
69031;DHT22;56083;48.774;8.942;2023-05-29T07:20:36;19.10;99.90
69031;DHT22;56083;48.774;8.942;2023-05-29T07:23:02;19.50;99.90
69031;DHT22;56083;48.774;8.942;2023-05-29T07:25:27;20.00;99.90
69031;DHT22;56083;48.774;8.942;2023-05-29T07:27:53;20.60;99.90
69031;DHT22;56083;48.774;8.942;2023-05-29T07:30:19;20.70;99.90
69031;DHT22;56083;48.774;8.942;2023-05-29T07:32:44;21.30;99.90
69031;DHT22;56083;48.774;8.942;2023-05-29T07:35:10;21.80;99.90
69031;DHT22;56083;48.774;8.942;2023-05-29T07:37:36;22.00;99.90
69031;DHT22;56083;48.774;8.942;2023-05-29T07:40:02;22.30;99.90
69031;DHT22;56083;48.774;8.942;2023-05-29T07:42:32;22.70;99.90
69031;DHT22;56083;48.774;8.942;2023-05-29T07:47:24;24.00;99.90
69031;DHT22;56083;48.774;8.942;2023-05-29T07:49:50;24.40;99.90
69031;DHT22;56083;48.774;8.942;2023-05-29T07:52:15;25.00;99.90
69031;DHT22;56083;48.774;8.942;2023-05-29T07:54:41;25.40;99.90
69031;DHT22;56083;48.774;8.942;2023-05-29T07:57:07;25.30;99.90
69031;DHT22;56083;48.774;8.942;2023-05-29T07:59:35;25.80;99.90
69031;DHT22;56083;48.774;8.942;2023-05-29T08:02:01;26.50;99.90
69031;DHT22;56083;48.774;8.942;2023-05-29T08:04:28;26.80;99.90
69031;DHT22;56083;48.774;8.942;2023-05-29T08:06:54;27.40;97.90
69031;DHT22;56083;48.774;8.942;2023-05-29T08:09:20;27.70;96.30
69031;DHT22;56083;48.774;8.942;2023-05-29T08:11:46;28.00;95.10
69031;DHT22;56083;48.774;8.942;2023-05-29T08:14:12;28.00;92.90
69031;DHT22;56083;48.774;8.942;2023-05-29T08:16:38;28.10;90.90
69031;DHT22;56083;48.774;8.942;2023-05-29T08:19:04;27.80;91.00
69031;DHT22;56083;48.774;8.942;2023-05-29T08:21:30;28.30;90.90
69031;DHT22;56083;48.774;8.942;2023-05-29T08:23:58;28.60;89.50
69031;DHT22;56083;48.774;8.942;2023-05-29T08:26:24;28.50;87.50
69031;DHT22;56083;48.774;8.942;2023-05-29T08:28:50;28.60;87.30
69031;DHT22;56083;48.774;8.942;2023-05-29T08:31:15;28.90;83.90
69031;DHT22;56083;48.774;8.942;2023-05-29T08:33:41;28.80;84.10
69031;DHT22;56083;48.774;8.942;2023-05-29T08:36:07;29.00;84.40
69031;DHT22;56083;48.774;8.942;2023-05-29T08:38:34;29.40;82.40
69031;DHT22;56083;48.774;8.942;2023-05-29T08:40:59;29.60;81.40
69031;DHT22;56083;48.774;8.942;2023-05-29T08:43:31;29.50;81.40
69031;DHT22;56083;48.774;8.942;2023-05-29T08:46:00;29.00;79.70
69031;DHT22;56083;48.774;8.942;2023-05-29T08:48:28;28.90;80.00
69031;DHT22;56083;48.774;8.942;2023-05-29T08:50:55;29.30;79.20
69031;DHT22;56083;48.774;8.942;2023-05-29T08:53:21;29.50;77.80
69031;DHT22;56083;48.774;8.942;2023-05-29T08:55:48;29.90;77.30
69031;DHT22;56083;48.774;8.942;2023-05-29T08:58:17;30.40;75.60
69031;DHT22;56083;48.774;8.942;2023-05-29T09:00:44;30.70;72.60
69031;DHT22;56083;48.774;8.942;2023-05-29T09:03:11;31.10;72.20
69031;DHT22;56083;48.774;8.942;2023-05-29T09:05:38;31.10;72.00
69031;DHT22;56083;48.774;8.942;2023-05-29T09:08:06;30.90;72.50
69031;DHT22;56083;48.774;8.942;2023-05-29T09:10:32;30.60;71.60
69031;DHT22;56083;48.774;8.942;2023-05-29T09:12:58;31.10;71.60
69031;DHT22;56083;48.774;8.942;2023-05-29T09:15:24;31.10;70.80
69031;DHT22;56083;48.774;8.942;2023-05-29T09:17:59;30.80;68.80
69031;DHT22;56083;48.774;8.942;2023-05-29T09:20:26;31.10;69.40
69031;DHT22;56083;48.774;8.942;2023-05-29T09:23:05;31.70;68.00
69031;DHT22;56083;48.774;8.942;2023-05-29T09:25:32;31.90;67.30
69031;DHT22;56083;48.774;8.942;2023-05-29T09:28:03;31.40;67.40
69031;DHT22;56083;48.774;8.942;2023-05-29T09:30:37;30.80;68.40
69031;DHT22;56083;48.774;8.942;2023-05-29T09:33:04;30.50;69.50
69031;DHT22;56083;48.774;8.942;2023-05-29T09:38:07;31.30;68.70
69031;DHT22;56083;48.774;8.942;2023-05-29T09:40:37;31.60;67.80
69031;DHT22;56083;48.774;8.942;2023-05-29T09:43:16;31.60;67.40
69031;DHT22;56083;48.774;8.942;2023-05-29T09:45:47;32.10;66.50
69031;DHT22;56083;48.774;8.942;2023-05-29T09:48:23;31.50;65.80
69031;DHT22;56083;48.774;8.942;2023-05-29T09:50:49;31.30;65.70
69031;DHT22;56083;48.774;8.942;2023-05-29T09:53:19;31.10;66.00
69031;DHT22;56083;48.774;8.942;2023-05-29T09:55:47;31.00;66.10
69031;DHT22;56083;48.774;8.942;2023-05-29T09:58:17;31.60;67.60
69031;DHT22;56083;48.774;8.942;2023-05-29T10:00:42;31.80;66.30
69031;DHT22;56083;48.774;8.942;2023-05-29T10:03:09;31.60;67.60
69031;DHT22;56083;48.774;8.942;2023-05-29T10:05:37;32.10;64.50
69031;DHT22;56083;48.774;8.942;2023-05-29T10:08:04;32.40;63.00
69031;DHT22;56083;48.774;8.942;2023-05-29T10:10:31;33.00;64.00
69031;DHT22;56083;48.774;8.942;2023-05-29T10:12:57;33.70;62.40
69031;DHT22;56083;48.774;8.942;2023-05-29T10:15:26;33.90;58.40
69031;DHT22;56083;48.774;8.942;2023-05-29T10:18:07;34.00;58.70
69031;DHT22;56083;48.774;8.942;2023-05-29T10:20:37;34.40;58.00
69031;DHT22;56083;48.774;8.942;2023-05-29T10:23:04;34.30;57.80
69031;DHT22;56083;48.774;8.942;2023-05-29T10:25:31;34.30;58.70
69031;DHT22;56083;48.774;8.942;2023-05-29T10:27:58;34.20;58.40
69031;DHT22;56083;48.774;8.942;2023-05-29T10:30:27;34.50;57.80
69031;DHT22;56083;48.774;8.942;2023-05-29T10:38:35;35.50;54.30
69031;DHT22;56083;48.774;8.942;2023-05-29T10:43:53;34.80;55.80
69031;DHT22;56083;48.774;8.942;2023-05-29T10:46:19;35.10;56.20
69031;DHT22;56083;48.774;8.942;2023-05-29T10:48:45;35.90;55.80
69031;DHT22;56083;48.774;8.942;2023-05-29T10:51:37;36.10;53.90
69031;DHT22;56083;48.774;8.942;2023-05-29T10:54:06;35.50;53.40
69031;DHT22;56083;48.774;8.942;2023-05-29T10:56:32;35.40;54.80
69031;DHT22;56083;48.774;8.942;2023-05-29T10:58:59;35.20;54.30
69031;DHT22;56083;48.774;8.942;2023-05-29T11:01:28;34.90;53.30
69031;DHT22;56083;48.774;8.942;2023-05-29T11:06:41;34.80;51.60
69031;DHT22;56083;48.774;8.942;2023-05-29T11:09:35;34.60;54.90
69031;DHT22;56083;48.774;8.942;2023-05-29T11:14:46;35.40;54.10
69031;DHT22;56083;48.774;8.942;2023-05-29T11:20:03;36.30;51.50
69031;DHT22;56083;48.774;8.942;2023-05-29T11:25:14;36.90;46.60
69031;DHT22;56083;48.774;8.942;2023-05-29T11:27:41;36.80;47.30
69031;DHT22;56083;48.774;8.942;2023-05-29T11:30:07;35.80;46.10
69031;DHT22;56083;48.774;8.942;2023-05-29T11:32:34;36.30;46.10
69031;DHT22;56083;48.774;8.942;2023-05-29T11:35:09;36.70;46.10
69031;DHT22;56083;48.774;8.942;2023-05-29T11:37:38;36.60;46.90
69031;DHT22;56083;48.774;8.942;2023-05-29T11:40:05;36.00;45.80
69031;DHT22;56083;48.774;8.942;2023-05-29T11:42:43;36.40;46.60
69031;DHT22;56083;48.774;8.942;2023-05-29T11:45:16;37.00;46.50
69031;DHT22;56083;48.774;8.942;2023-05-29T11:50:24;37.10;47.00
69031;DHT22;56083;48.774;8.942;2023-05-29T11:52:50;35.90;45.40
69031;DHT22;56083;48.774;8.942;2023-05-29T11:55:20;35.50;46.20
69031;DHT22;56083;48.774;8.942;2023-05-29T11:57:49;35.90;45.50
69031;DHT22;56083;48.774;8.942;2023-05-29T12:00:16;36.20;46.30
69031;DHT22;56083;48.774;8.942;2023-05-29T12:02:43;35.90;45.30
69031;DHT22;56083;48.774;8.942;2023-05-29T12:05:09;35.80;46.00
69031;DHT22;56083;48.774;8.942;2023-05-29T12:07:38;35.60;45.50
69031;DHT22;56083;48.774;8.942;2023-05-29T12:10:14;35.60;45.70
69031;DHT22;56083;48.774;8.942;2023-05-29T12:12:41;36.10;46.10
69031;DHT22;56083;48.774;8.942;2023-05-29T12:15:07;36.50;43.90
69031;DHT22;56083;48.774;8.942;2023-05-29T12:17:34;36.80;42.50
69031;DHT22;56083;48.774;8.942;2023-05-29T12:20:00;35.60;42.80
69031;DHT22;56083;48.774;8.942;2023-05-29T12:22:36;36.00;43.20
69031;DHT22;56083;48.774;8.942;2023-05-29T12:25:06;36.40;42.60
69031;DHT22;56083;48.774;8.942;2023-05-29T12:27:33;36.70;43.60
69031;DHT22;56083;48.774;8.942;2023-05-29T12:30:11;36.70;43.90
69031;DHT22;56083;48.774;8.942;2023-05-29T12:32:39;37.00;43.30
69031;DHT22;56083;48.774;8.942;2023-05-29T12:35:19;37.50;41.40
69031;DHT22;56083;48.774;8.942;2023-05-29T12:37:56;36.30;38.60
69031;DHT22;56083;48.774;8.942;2023-05-29T12:40:25;35.40;39.80
69031;DHT22;56083;48.774;8.942;2023-05-29T12:42:56;36.00;41.20
69031;DHT22;56083;48.774;8.942;2023-05-29T12:45:26;35.90;37.60
69031;DHT22;56083;48.774;8.942;2023-05-29T12:48:00;35.10;38.80
69031;DHT22;56083;48.774;8.942;2023-05-29T12:50:33;35.40;38.50
69031;DHT22;56083;48.774;8.942;2023-05-29T12:53:07;35.40;37.00
69031;DHT22;56083;48.774;8.942;2023-05-29T12:55:38;36.30;39.10
69031;DHT22;56083;48.774;8.942;2023-05-29T12:58:05;36.40;39.80
69031;DHT22;56083;48.774;8.942;2023-05-29T13:00:33;36.90;38.10
69031;DHT22;56083;48.774;8.942;2023-05-29T13:02:59;37.00;37.10
69031;DHT22;56083;48.774;8.942;2023-05-29T13:05:24;37.20;37.80
69031;DHT22;56083;48.774;8.942;2023-05-29T13:07:51;37.60;39.30
69031;DHT22;56083;48.774;8.942;2023-05-29T13:10:17;37.80;37.30
69031;DHT22;56083;48.774;8.942;2023-05-29T13:12:43;37.50;36.40
69031;DHT22;56083;48.774;8.942;2023-05-29T13:15:11;36.00;37.70
69031;DHT22;56083;48.774;8.942;2023-05-29T13:17:37;36.30;38.30
69031;DHT22;56083;48.774;8.942;2023-05-29T13:20:09;36.60;37.80
69031;DHT22;56083;48.774;8.942;2023-05-29T13:22:36;36.50;37.90
69031;DHT22;56083;48.774;8.942;2023-05-29T13:25:02;36.20;38.10
69031;DHT22;56083;48.774;8.942;2023-05-29T13:27:28;36.10;37.70
69031;DHT22;56083;48.774;8.942;2023-05-29T13:29:54;36.50;37.10
69031;DHT22;56083;48.774;8.942;2023-05-29T13:32:20;36.80;36.60
69031;DHT22;56083;48.774;8.942;2023-05-29T13:34:46;36.90;36.60
69031;DHT22;56083;48.774;8.942;2023-05-29T13:37:11;36.30;37.30
69031;DHT22;56083;48.774;8.942;2023-05-29T13:39:37;35.70;37.40
69031;DHT22;56083;48.774;8.942;2023-05-29T13:42:03;36.40;38.20
69031;DHT22;56083;48.774;8.942;2023-05-29T13:44:28;36.30;37.70
69031;DHT22;56083;48.774;8.942;2023-05-29T13:46:54;36.70;37.90
69031;DHT22;56083;48.774;8.942;2023-05-29T13:49:20;36.90;37.70
69031;DHT22;56083;48.774;8.942;2023-05-29T13:51:46;36.80;37.40
69031;DHT22;56083;48.774;8.942;2023-05-29T13:54:15;37.20;36.80
69031;DHT22;56083;48.774;8.942;2023-05-29T13:56:40;37.50;37.00
69031;DHT22;56083;48.774;8.942;2023-05-29T13:59:06;37.00;36.00
69031;DHT22;56083;48.774;8.942;2023-05-29T14:01:32;36.90;36.30
69031;DHT22;56083;48.774;8.942;2023-05-29T14:03:59;36.60;36.80
69031;DHT22;56083;48.774;8.942;2023-05-29T14:06:24;36.70;37.00
69031;DHT22;56083;48.774;8.942;2023-05-29T14:08:50;36.30;37.30
69031;DHT22;56083;48.774;8.942;2023-05-29T14:11:16;36.60;37.70
69031;DHT22;56083;48.774;8.942;2023-05-29T14:13:41;36.40;37.90
69031;DHT22;56083;48.774;8.942;2023-05-29T14:16:07;36.60;38.20
69031;DHT22;56083;48.774;8.942;2023-05-29T14:18:32;36.60;37.70
69031;DHT22;56083;48.774;8.942;2023-05-29T14:20:59;36.60;37.60
69031;DHT22;56083;48.774;8.942;2023-05-29T14:23:24;36.30;37.50
69031;DHT22;56083;48.774;8.942;2023-05-29T14:25:50;36.50;36.50
69031;DHT22;56083;48.774;8.942;2023-05-29T14:28:17;36.80;37.10
69031;DHT22;56083;48.774;8.942;2023-05-29T14:30:42;37.10;36.40
69031;DHT22;56083;48.774;8.942;2023-05-29T14:33:09;36.80;37.10
69031;DHT22;56083;48.774;8.942;2023-05-29T14:35:34;36.50;36.50
69031;DHT22;56083;48.774;8.942;2023-05-29T14:38:00;36.80;36.70
69031;DHT22;56083;48.774;8.942;2023-05-29T14:40:26;36.70;36.90
69031;DHT22;56083;48.774;8.942;2023-05-29T14:42:51;36.70;37.70
69031;DHT22;56083;48.774;8.942;2023-05-29T14:45:17;36.90;36.80
69031;DHT22;56083;48.774;8.942;2023-05-29T14:47:43;37.00;36.50
69031;DHT22;56083;48.774;8.942;2023-05-29T14:50:08;36.90;36.80
69031;DHT22;56083;48.774;8.942;2023-05-29T14:52:34;37.30;36.90
69031;DHT22;56083;48.774;8.942;2023-05-29T14:55:07;37.20;37.00
69031;DHT22;56083;48.774;8.942;2023-05-29T14:57:32;37.20;36.60
69031;DHT22;56083;48.774;8.942;2023-05-29T15:00:00;36.50;37.50
69031;DHT22;56083;48.774;8.942;2023-05-29T15:02:26;36.10;37.80
69031;DHT22;56083;48.774;8.942;2023-05-29T15:04:51;36.20;38.20
69031;DHT22;56083;48.774;8.942;2023-05-29T15:07:17;36.30;37.80
69031;DHT22;56083;48.774;8.942;2023-05-29T15:09:43;35.70;38.30
69031;DHT22;56083;48.774;8.942;2023-05-29T15:12:09;35.60;38.60
69031;DHT22;56083;48.774;8.942;2023-05-29T15:14:35;35.50;39.20
69031;DHT22;56083;48.774;8.942;2023-05-29T15:17:03;35.70;39.40
69031;DHT22;56083;48.774;8.942;2023-05-29T15:19:29;35.90;38.60
69031;DHT22;56083;48.774;8.942;2023-05-29T15:21:56;35.80;39.70
69031;DHT22;56083;48.774;8.942;2023-05-29T15:24:21;35.20;38.20
69031;DHT22;56083;48.774;8.942;2023-05-29T15:26:47;35.20;38.50
69031;DHT22;56083;48.774;8.942;2023-05-29T15:29:12;35.30;39.00
69031;DHT22;56083;48.774;8.942;2023-05-29T15:31:38;35.20;39.50
69031;DHT22;56083;48.774;8.942;2023-05-29T15:34:04;35.20;40.10
69031;DHT22;56083;48.774;8.942;2023-05-29T15:36:29;35.30;40.20
69031;DHT22;56083;48.774;8.942;2023-05-29T15:38:55;35.10;39.40
69031;DHT22;56083;48.774;8.942;2023-05-29T15:41:21;34.70;40.00
69031;DHT22;56083;48.774;8.942;2023-05-29T15:43:46;34.30;40.40
69031;DHT22;56083;48.774;8.942;2023-05-29T15:46:12;34.50;40.20
69031;DHT22;56083;48.774;8.942;2023-05-29T15:48:38;34.20;40.80
69031;DHT22;56083;48.774;8.942;2023-05-29T15:51:03;34.00;40.90
69031;DHT22;56083;48.774;8.942;2023-05-29T15:53:29;34.00;40.40
69031;DHT22;56083;48.774;8.942;2023-05-29T15:55:55;34.10;41.40
69031;DHT22;56083;48.774;8.942;2023-05-29T15:58:20;34.40;40.80
69031;DHT22;56083;48.774;8.942;2023-05-29T16:00:47;34.10;40.80
69031;DHT22;56083;48.774;8.942;2023-05-29T16:03:13;33.80;41.80
69031;DHT22;56083;48.774;8.942;2023-05-29T16:05:38;33.50;40.50
69031;DHT22;56083;48.774;8.942;2023-05-29T16:08:05;33.10;42.40